Time,TemperatureF,DewpointF,PressureIn,WindDirection,WindDirectionDegrees,WindSpeedMPH,WindSpeedGustMPH,Humidity,HourlyPrecipIn,Conditions,Clouds,dailyrainin,SoftwareType,DateUTC
2013-06-18 00:00:00,71.7,67.7,28.85,North,-999,-999.0,-999.0,88,0.00,,,0.00,WSDL version 420,2013-06-18 04:00:00,
2013-06-18 00:02:00,71.8,67.9,28.85,North,360,0.0,0.0,88,0.00,,,0.00,WSDL version 420,2013-06-18 04:02:00,
2013-06-18 00:06:00,71.8,68.0,28.85,North,-999,-999.0,-999.0,88,0.00,,,0.00,WSDL version 420,2013-06-18 04:06:00,
2013-06-18 00:08:00,71.8,68.0,28.85,North,-999,-999.0,-999.0,88,0.00,,,0.00,WSDL version 420,2013-06-18 04:08:00,
2013-06-18 00:10:00,71.7,67.9,28.85,North,360,0.0,0.0,88,0.00,,,0.00,WSDL version 420,2013-06-18 04:10:00,
2013-06-18 00:12:00,71.7,67.9,28.85,North,-999,-999.0,-999.0,88,0.00,,,0.00,WSDL version 420,2013-06-18 04:12:00,
2013-06-18 00:14:00,71.6,67.8,28.85,North,-999,-999.0,-999.0,88,0.00,,,0.00,WSDL version 420,2013-06-18 04:14:00,
2013-06-18 00:18:00,71.6,67.8,28.85,North,360,0.0,0.0,88,0.00,,,0.00,WSDL version 420,2013-06-18 04:18:00,
2013-06-18 00:20:00,71.6,67.8,28.85,North,360,0.0,0.0,88,0.00,,,0.00,WSDL version 420,2013-06-18 04:20:00,
2013-06-18 00:22:00,71.6,67.8,28.85,North,360,0.0,0.0,88,0.00,,,0.00,WSDL version 420,2013-06-18 04:22:00,
2013-06-18 00:26:00,71.6,68.1,28.85,North,-999,-999.0,-999.0,89,0.00,,,0.00,WSDL version 420,2013-06-18 04:26:00,
2013-06-18 00:30:00,71.6,68.2,28.85,North,-999,-999.0,-999.0,89,0.00,,,0.00,WSDL version 420,2013-06-18 04:30:00,
2013-06-18 00:32:00,71.6,68.2,28.85,North,-999,-999.0,-999.0,89,0.00,,,0.00,WSDL version 420,2013-06-18 04:32:00,
2013-06-18 00:36:00,71.6,68.2,28.85,North,360,0.0,0.0,89,0.00,,,0.00,WSDL version 420,2013-06-18 04:36:00,
2013-06-18 00:38:00,71.6,68.2,28.85,North,360,0.0,0.0,89,0.00,,,0.00,WSDL version 420,2013-06-18 04:38:00,
2013-06-18 00:44:00,71.5,68.2,28.85,North,360,0.0,0.0,90,0.00,,,0.00,WSDL version 420,2013-06-18 04:44:00,
2013-06-18 00:46:00,71.5,68.3,28.85,North,0,0.0,0.0,90,0.00,,,0.00,WSDL version 420,2013-06-18 04:46:00,
2013-06-18 00:50:00,71.4,68.3,28.85,North,-999,-999.0,-999.0,90,0.00,,,0.00,WSDL version 420,2013-06-18 04:50:00,
2013-06-18 00:52:00,71.4,68.3,28.85,North,-999,-999.0,-999.0,90,0.00,,,0.00,WSDL version 420,2013-06-18 04:52:00,
2013-06-18 00:58:00,71.4,68.3,28.85,North,360,0.0,0.0,90,0.00,,,0.00,WSDL version 420,2013-06-18 04:58:00,
2013-06-18 01:00:00,71.4,68.3,28.85,North,-999,-999.0,-999.0,90,0.00,,,0.00,WSDL version 420,2013-06-18 05:00:00,
2013-06-18 01:04:00,71.4,68.3,28.85,North,-999,-999.0,-999.0,90,0.00,,,0.00,WSDL version 420,2013-06-18 05:04:00,
2013-06-18 01:10:00,71.4,68.5,28.85,North,360,0.0,0.0,90,0.00,,,0.00,WSDL version 420,2013-06-18 05:10:00,
2013-06-18 01:14:00,71.2,68.2,28.85,North,-999,-999.0,-999.0,90,0.00,,,0.00,WSDL version 420,2013-06-18 05:14:00,
2013-06-18 01:16:00,71.2,68.2,28.85,North,-999,-999.0,-999.0,91,0.00,,,0.00,WSDL version 420,2013-06-18 05:16:00,
2013-06-18 01:20:00,71.2,68.5,28.85,North,-999,-999.0,-999.0,91,0.00,,,0.00,WSDL version 420,2013-06-18 05:20:00,
2013-06-18 01:22:00,71.2,68.5,28.85,North,-999,-999.0,-999.0,91,0.00,,,0.00,WSDL version 420,2013-06-18 05:22:00,
2013-06-18 01:24:00,71.2,68.5,28.85,North,360,0.0,0.0,91,0.00,,,0.00,WSDL version 420,2013-06-18 05:24:00,
2013-06-18 01:28:00,71.2,68.5,28.85,North,-999,-999.0,-999.0,91,0.00,,,0.00,WSDL version 420,2013-06-18 05:28:00,
2013-06-18 01:30:00,71.2,68.5,28.85,North,-999,-999.0,-999.0,91,0.00,,,0.00,WSDL version 420,2013-06-18 05:30:00,
2013-06-18 01:32:00,71.2,68.5,28.85,North,-999,-999.0,-999.0,91,0.00,,,0.00,WSDL version 420,2013-06-18 05:32:00,
2013-06-18 01:36:00,71.1,68.4,28.82,North,360,0.0,0.0,91,0.00,,,0.00,WSDL version 420,2013-06-18 05:36:00,
2013-06-18 01:38:00,71.1,68.3,28.82,North,-999,-999.0,-999.0,91,0.00,,,0.00,WSDL version 420,2013-06-18 05:38:00,
2013-06-18 01:40:00,71.1,68.3,28.82,North,-999,-999.0,-999.0,91,0.00,,,0.00,WSDL version 420,2013-06-18 05:40:00,
2013-06-18 01:42:00,71.1,68.3,28.82,North,360,0.0,0.0,91,0.00,,,0.00,WSDL version 420,2013-06-18 05:42:00,
2013-06-18 01:44:00,71.1,68.3,28.82,North,-999,-999.0,-999.0,91,0.00,,,0.00,WSDL version 420,2013-06-18 05:44:00,
2013-06-18 01:46:00,71.1,68.3,28.82,North,-999,-999.0,-999.0,91,0.00,,,0.00,WSDL version 420,2013-06-18 05:46:00,
2013-06-18 01:48:00,71.0,68.3,28.82,North,-999,-999.0,-999.0,91,0.00,,,0.00,WSDL version 420,2013-06-18 05:48:00,
2013-06-18 01:50:00,71.0,68.2,28.82,North,-999,-999.0,-999.0,91,0.00,,,0.00,WSDL version 420,2013-06-18 05:50:00,
2013-06-18 01:52:00,70.9,68.2,28.82,North,360,0.0,0.0,91,0.00,,,0.00,WSDL version 420,2013-06-18 05:52:00,
2013-06-18 01:56:00,71.1,68.3,28.82,North,360,0.0,0.0,91,0.00,,,0.00,WSDL version 420,2013-06-18 05:56:00,
2013-06-18 01:58:00,71.1,68.3,28.82,North,360,0.0,0.0,91,0.00,,,0.00,WSDL version 420,2013-06-18 05:58:00,
2013-06-18 02:02:00,71.1,68.5,28.82,North,-999,-999.0,-999.0,92,0.00,,,0.00,WSDL version 420,2013-06-18 06:02:00,
2013-06-18 02:04:00,71.1,68.6,28.82,North,-999,-999.0,-999.0,92,0.00,,,0.00,WSDL version 420,2013-06-18 06:04:00,
2013-06-18 02:08:00,71.1,68.7,28.82,North,-999,-999.0,-999.0,92,0.00,,,0.00,WSDL version 420,2013-06-18 06:08:00,
2013-06-18 02:10:00,71.1,68.7,28.82,North,360,0.0,0.0,92,0.00,,,0.00,WSDL version 420,2013-06-18 06:10:00,
2013-06-18 02:14:00,70.9,68.6,28.82,North,-999,-999.0,-999.0,92,0.00,,,0.00,WSDL version 420,2013-06-18 06:14:00,
2013-06-18 02:16:00,70.9,68.5,28.82,North,-999,-999.0,-999.0,92,0.00,,,0.00,WSDL version 420,2013-06-18 06:16:00,
2013-06-18 02:18:00,70.9,68.5,28.82,North,-999,-999.0,-999.0,92,0.00,,,0.00,WSDL version 420,2013-06-18 06:18:00,
2013-06-18 02:20:00,70.9,68.5,28.82,North,-999,-999.0,-999.0,92,0.00,,,0.00,WSDL version 420,2013-06-18 06:20:00,
2013-06-18 02:26:00,70.9,68.5,28.82,North,-999,-999.0,-999.0,92,0.00,,,0.00,WSDL version 420,2013-06-18 06:26:00,
2013-06-18 02:30:00,70.9,68.5,28.82,North,-999,-999.0,-999.0,92,0.00,,,0.00,WSDL version 420,2013-06-18 06:30:00,
2013-06-18 02:32:00,70.9,68.5,28.82,North,-999,-999.0,-999.0,92,0.00,,,0.00,WSDL version 420,2013-06-18 06:32:00,
2013-06-18 02:36:00,70.9,68.5,28.79,North,-999,-999.0,-999.0,92,0.00,,,0.00,WSDL version 420,2013-06-18 06:36:00,
2013-06-18 02:38:00,70.9,68.5,28.79,North,-999,-999.0,-999.0,92,0.00,,,0.00,WSDL version 420,2013-06-18 06:38:00,
2013-06-18 02:40:00,70.9,68.6,28.79,North,360,0.0,0.0,93,0.00,,,0.00,WSDL version 420,2013-06-18 06:40:00,
2013-06-18 02:42:00,70.9,68.7,28.79,North,360,0.0,0.0,93,0.00,,,0.00,WSDL version 420,2013-06-18 06:42:00,
2013-06-18 02:46:00,70.7,68.5,28.79,North,-999,-999.0,-999.0,92,0.00,,,0.00,WSDL version 420,2013-06-18 06:46:00,
2013-06-18 02:50:00,70.7,68.6,28.79,North,-999,-999.0,-999.0,93,0.00,,,0.00,WSDL version 420,2013-06-18 06:50:00,
2013-06-18 02:52:00,70.7,68.7,28.79,North,360,0.0,0.0,93,0.00,,,0.00,WSDL version 420,2013-06-18 06:52:00,
2013-06-18 02:54:00,70.7,68.7,28.79,North,-999,-999.0,-999.0,93,0.00,,,0.00,WSDL version 420,2013-06-18 06:54:00,
2013-06-18 02:56:00,70.7,68.7,28.79,North,-999,-999.0,-999.0,93,0.00,,,0.00,WSDL version 420,2013-06-18 06:56:00,
2013-06-18 03:02:00,70.7,68.7,28.79,North,-999,-999.0,-999.0,93,0.00,,,0.00,WSDL version 420,2013-06-18 07:02:00,
2013-06-18 03:04:00,70.7,68.7,28.79,North,-999,-999.0,-999.0,93,0.00,,,0.00,WSDL version 420,2013-06-18 07:04:00,
2013-06-18 03:06:00,70.7,68.7,28.79,North,-999,-999.0,-999.0,93,0.00,,,0.00,WSDL version 420,2013-06-18 07:06:00,
2013-06-18 03:10:00,70.8,68.8,28.79,North,360,0.0,0.0,93,0.00,,,0.00,WSDL version 420,2013-06-18 07:10:00,
2013-06-18 03:12:00,70.9,68.9,28.79,North,0,0.0,0.0,94,0.00,,,0.00,WSDL version 420,2013-06-18 07:12:00,
2013-06-18 03:14:00,70.9,69.1,28.79,North,-999,-999.0,-999.0,94,0.00,,,0.00,WSDL version 420,2013-06-18 07:14:00,
2013-06-18 03:18:00,70.8,69.1,28.79,North,-999,-999.0,-999.0,94,0.00,,,0.00,WSDL version 420,2013-06-18 07:18:00,
2013-06-18 03:20:00,70.7,69.0,28.79,North,-999,-999.0,-999.0,94,0.00,,,0.00,WSDL version 420,2013-06-18 07:20:00,
2013-06-18 03:22:00,70.7,69.0,28.79,North,-999,-999.0,-999.0,94,0.00,,,0.00,WSDL version 420,2013-06-18 07:22:00,
2013-06-18 03:26:00,70.7,69.0,28.79,North,-999,-999.0,-999.0,94,0.00,,,0.00,WSDL version 420,2013-06-18 07:26:00,
2013-06-18 03:28:00,70.7,69.0,28.79,North,-999,-999.0,-999.0,94,0.00,,,0.00,WSDL version 420,2013-06-18 07:28:00,
2013-06-18 03:30:00,70.7,69.0,28.79,North,-999,-999.0,-999.0,94,0.00,,,0.00,WSDL version 420,2013-06-18 07:30:00,
2013-06-18 03:32:00,70.7,69.0,28.79,North,-999,-999.0,-999.0,94,0.00,,,0.00,WSDL version 420,2013-06-18 07:32:00,
2013-06-18 03:34:00,70.7,69.0,28.79,North,360,0.0,0.0,94,0.00,,,0.00,WSDL version 420,2013-06-18 07:34:00,
2013-06-18 03:36:00,70.7,69.0,28.79,North,-999,-999.0,-999.0,94,0.00,,,0.00,WSDL version 420,2013-06-18 07:36:00,
2013-06-18 03:40:00,70.8,69.1,28.79,North,-999,-999.0,-999.0,94,0.00,,,0.00,WSDL version 420,2013-06-18 07:40:00,
2013-06-18 03:44:00,70.9,69.5,28.79,North,360,0.0,0.0,96,0.00,,,0.00,WSDL version 420,2013-06-18 07:44:00,
2013-06-18 03:46:00,70.9,69.5,28.79,North,-999,-999.0,-999.0,96,0.00,,,0.00,WSDL version 420,2013-06-18 07:46:00,
2013-06-18 03:48:00,70.9,69.5,28.79,North,-999,-999.0,-999.0,96,0.00,,,0.00,WSDL version 420,2013-06-18 07:48:00,
2013-06-18 03:50:00,70.9,69.5,28.79,North,360,0.0,0.0,96,0.00,,,0.00,WSDL version 420,2013-06-18 07:50:00,
2013-06-18 03:56:00,70.7,69.4,28.79,North,-999,-999.0,-999.0,96,0.00,,,0.00,WSDL version 420,2013-06-18 07:56:00,
2013-06-18 03:58:00,70.8,69.5,28.79,North,-999,-999.0,-999.0,96,0.00,,,0.00,WSDL version 420,2013-06-18 07:58:00,
2013-06-18 04:00:00,70.9,69.5,28.79,North,-999,-999.0,-999.0,96,0.00,,,0.00,WSDL version 420,2013-06-18 08:00:00,
2013-06-18 04:06:00,70.9,69.7,28.79,East,90,0.0,0.0,97,0.00,,,0.00,WSDL version 420,2013-06-18 08:06:00,
2013-06-18 04:08:00,70.9,69.8,28.79,North,0,0.0,0.0,97,0.00,,,0.00,WSDL version 420,2013-06-18 08:08:00,
2013-06-18 04:10:00,70.9,69.9,28.79,North,-999,-999.0,-999.0,97,0.00,,,0.00,WSDL version 420,2013-06-18 08:10:00,
2013-06-18 04:14:00,70.9,69.9,28.79,NNW,338,0.0,0.0,97,0.00,,,0.00,WSDL version 420,2013-06-18 08:14:00,
2013-06-18 04:18:00,70.9,69.9,28.79,North,-999,-999.0,-999.0,97,0.00,,,0.00,WSDL version 420,2013-06-18 08:18:00,
2013-06-18 04:20:00,70.9,69.9,28.79,North,-999,-999.0,-999.0,97,0.00,,,0.00,WSDL version 420,2013-06-18 08:20:00,
2013-06-18 04:22:00,70.9,69.9,28.76,North,-999,-999.0,-999.0,97,0.00,,,0.00,WSDL version 420,2013-06-18 08:22:00,
2013-06-18 04:26:00,70.9,69.9,28.76,North,-999,-999.0,-999.0,97,0.00,,,0.00,WSDL version 420,2013-06-18 08:26:00,
2013-06-18 04:28:00,70.9,69.9,28.76,North,-999,-999.0,-999.0,97,0.00,,,0.00,WSDL version 420,2013-06-18 08:28:00,
2013-06-18 04:30:00,70.9,69.9,28.76,North,-999,-999.0,-999.0,97,0.00,,,0.00,WSDL version 420,2013-06-18 08:30:00,
2013-06-18 04:34:00,70.7,69.7,28.76,North,-999,-999.0,-999.0,97,0.00,,,0.00,WSDL version 420,2013-06-18 08:34:00,
2013-06-18 04:36:00,70.7,69.7,28.76,North,-999,-999.0,-999.0,97,0.00,,,0.00,WSDL version 420,2013-06-18 08:36:00,
2013-06-18 04:38:00,70.7,69.7,28.76,North,-999,-999.0,-999.0,97,0.00,,,0.00,WSDL version 420,2013-06-18 08:38:00,
2013-06-18 04:40:00,70.7,69.7,28.76,North,-999,-999.0,-999.0,97,0.00,,,0.00,WSDL version 420,2013-06-18 08:40:00,
2013-06-18 04:42:00,70.7,69.7,28.76,North,360,0.0,0.0,97,0.00,,,0.00,WSDL version 420,2013-06-18 08:42:00,
2013-06-18 04:44:00,70.7,69.7,28.76,North,-999,-999.0,-999.0,97,0.00,,,0.00,WSDL version 420,2013-06-18 08:44:00,
2013-06-18 04:48:00,70.7,69.7,28.76,South,180,0.0,0.0,97,0.00,,,0.00,WSDL version 420,2013-06-18 08:48:00,
2013-06-18 04:50:00,70.7,69.7,28.76,North,-999,-999.0,-999.0,97,0.00,,,0.00,WSDL version 420,2013-06-18 08:50:00,
2013-06-18 04:52:00,70.7,69.8,28.76,SSE,158,0.0,0.0,98,0.00,,,0.00,WSDL version 420,2013-06-18 08:52:00,
2013-06-18 04:54:00,70.8,70.0,28.76,North,-999,-999.0,-999.0,98,0.00,,,0.00,WSDL version 420,2013-06-18 08:54:00,
2013-06-18 04:58:00,70.9,70.2,28.76,North,-999,-999.0,-999.0,98,0.00,,,0.00,WSDL version 420,2013-06-18 08:58:00,
2013-06-18 05:00:00,70.9,70.2,28.76,North,-999,-999.0,-999.0,98,0.00,,,0.00,WSDL version 420,2013-06-18 09:00:00,
2013-06-18 05:02:00,70.9,70.2,28.76,SSW,203,0.0,2.5,98,0.00,,,0.00,WSDL version 420,2013-06-18 09:02:00,
2013-06-18 05:06:00,71.0,70.5,28.76,North,-999,-999.0,-999.0,99,0.00,,,0.00,WSDL version 420,2013-06-18 09:06:00,
2013-06-18 05:10:00,71.1,70.7,28.76,North,-999,-999.0,-999.0,99,0.00,,,0.00,WSDL version 420,2013-06-18 09:10:00,
2013-06-18 05:12:00,71.1,70.7,28.76,North,-999,-999.0,-999.0,99,0.00,,,0.00,WSDL version 420,2013-06-18 09:12:00,
2013-06-18 05:14:00,71.1,70.7,28.76,North,-999,-999.0,-999.0,99,0.00,,,0.00,WSDL version 420,2013-06-18 09:14:00,
2013-06-18 05:18:00,71.1,70.7,28.76,North,-999,-999.0,-999.0,99,0.00,,,0.00,WSDL version 420,2013-06-18 09:18:00,
2013-06-18 05:20:00,71.2,70.8,28.76,SSE,158,0.0,0.0,99,0.00,,,0.00,WSDL version 420,2013-06-18 09:20:00,
2013-06-18 05:22:00,71.2,70.9,28.76,North,0,0.0,0.0,100,0.00,,,0.00,WSDL version 420,2013-06-18 09:22:00,
2013-06-18 05:24:00,71.2,71.1,28.76,East,90,0.0,0.0,100,0.00,,,0.00,WSDL version 420,2013-06-18 09:24:00,
2013-06-18 05:26:00,71.2,71.2,28.76,North,-999,-999.0,-999.0,100,0.00,,,0.00,WSDL version 420,2013-06-18 09:26:00,
2013-06-18 05:28:00,71.2,71.2,28.76,SE,135,0.0,0.0,100,0.00,,,0.00,WSDL version 420,2013-06-18 09:28:00,
2013-06-18 05:32:00,71.2,71.2,28.76,NNW,338,0.0,0.0,100,0.00,,,0.00,WSDL version 420,2013-06-18 09:32:00,
2013-06-18 05:34:00,71.2,71.2,28.76,North,0,0.0,0.0,100,0.00,,,0.00,WSDL version 420,2013-06-18 09:34:00,
2013-06-18 05:36:00,71.2,71.2,28.79,East,90,0.0,0.0,100,0.00,,,0.00,WSDL version 420,2013-06-18 09:36:00,
2013-06-18 05:38:00,71.2,71.2,28.79,South,180,0.0,0.0,100,0.00,,,0.00,WSDL version 420,2013-06-18 09:38:00,
2013-06-18 05:42:00,71.2,71.2,28.79,North,-999,-999.0,-999.0,100,0.00,,,0.00,WSDL version 420,2013-06-18 09:42:00,
2013-06-18 05:46:00,71.2,71.2,28.79,SSW,203,0.0,0.0,100,0.00,,,0.00,WSDL version 420,2013-06-18 09:46:00,
2013-06-18 05:52:00,71.2,71.2,28.79,North,0,0.0,0.0,100,0.00,,,0.00,WSDL version 420,2013-06-18 09:52:00,
2013-06-18 05:54:00,71.2,71.2,28.79,North,-999,-999.0,-999.0,100,0.00,,,0.00,WSDL version 420,2013-06-18 09:54:00,
2013-06-18 05:56:00,71.2,71.2,28.79,North,-999,-999.0,-999.0,100,0.00,,,0.00,WSDL version 420,2013-06-18 09:56:00,
2013-06-18 06:00:00,71.2,71.2,28.79,East,90,0.0,0.0,100,0.00,,,0.00,WSDL version 420,2013-06-18 10:00:00,
2013-06-18 06:02:00,71.2,71.2,28.79,South,180,0.0,0.0,100,0.00,,,0.00,WSDL version 420,2013-06-18 10:02:00,
2013-06-18 06:08:00,71.4,71.4,28.79,SSW,203,0.0,0.0,100,0.00,,,0.00,WSDL version 420,2013-06-18 10:08:00,
2013-06-18 06:10:00,71.4,71.4,28.79,North,-999,-999.0,-999.0,100,0.00,,,0.00,WSDL version 420,2013-06-18 10:10:00,
2013-06-18 06:14:00,71.4,71.4,28.79,North,-999,-999.0,-999.0,100,0.00,,,0.00,WSDL version 420,2013-06-18 10:14:00,
2013-06-18 06:16:00,71.4,71.4,28.79,North,-999,-999.0,-999.0,100,0.00,,,0.00,WSDL version 420,2013-06-18 10:16:00,
2013-06-18 06:18:00,71.4,71.4,28.79,North,-999,-999.0,-999.0,100,0.00,,,0.00,WSDL version 420,2013-06-18 10:18:00,
2013-06-18 06:20:00,71.4,71.4,28.79,North,-999,-999.0,-999.0,100,0.00,,,0.00,WSDL version 420,2013-06-18 10:20:00,
2013-06-18 06:24:00,71.4,71.4,28.79,East,90,0.0,0.0,100,0.00,,,0.00,WSDL version 420,2013-06-18 10:24:00,
2013-06-18 06:26:00,71.4,71.4,28.79,North,-999,-999.0,-999.0,100,0.00,,,0.00,WSDL version 420,2013-06-18 10:26:00,
2013-06-18 06:30:00,71.4,71.4,28.79,North,-999,-999.0,-999.0,100,0.00,,,0.00,WSDL version 420,2013-06-18 10:30:00,
2013-06-18 06:34:00,71.4,71.4,28.79,North,-999,-999.0,-999.0,100,0.00,,,0.00,WSDL version 420,2013-06-18 10:34:00,
2013-06-18 06:36:00,71.4,71.4,28.79,North,-999,-999.0,-999.0,100,0.00,,,0.00,WSDL version 420,2013-06-18 10:36:00,
2013-06-18 06:38:00,71.4,71.4,28.79,North,-999,-999.0,-999.0,100,0.00,,,0.00,WSDL version 420,2013-06-18 10:38:00,
2013-06-18 06:40:00,71.4,71.4,28.79,North,-999,-999.0,-999.0,100,0.00,,,0.00,WSDL version 420,2013-06-18 10:40:00,
2013-06-18 06:42:00,71.4,71.4,28.79,North,-999,-999.0,-999.0,100,0.00,,,0.00,WSDL version 420,2013-06-18 10:42:00,
2013-06-18 06:44:00,71.4,71.4,28.79,South,180,0.0,0.0,100,0.00,,,0.00,WSDL version 420,2013-06-18 10:44:00,
2013-06-18 06:48:00,71.4,71.4,28.79,North,-999,-999.0,-999.0,100,0.00,,,0.00,WSDL version 420,2013-06-18 10:48:00,
2013-06-18 06:50:00,71.4,71.4,28.79,North,-999,-999.0,-999.0,100,0.00,,,0.00,WSDL version 420,2013-06-18 10:50:00,
2013-06-18 06:52:00,71.4,71.4,28.79,North,-999,-999.0,-999.0,100,0.00,,,0.00,WSDL version 420,2013-06-18 10:52:00,
2013-06-18 06:54:00,71.4,71.4,28.79,North,-999,-999.0,-999.0,100,0.00,,,0.00,WSDL version 420,2013-06-18 10:54:00,
2013-06-18 06:56:00,71.4,71.4,28.79,North,-999,-999.0,-999.0,100,0.00,,,0.00,WSDL version 420,2013-06-18 10:56:00,
2013-06-18 06:58:00,71.4,71.4,28.79,SSW,203,0.0,0.0,100,0.00,,,0.00,WSDL version 420,2013-06-18 10:58:00,
2013-06-18 07:02:00,71.4,71.4,28.79,North,-999,-999.0,-999.0,100,0.00,,,0.00,WSDL version 420,2013-06-18 11:02:00,
2013-06-18 07:04:00,71.4,71.4,28.79,North,-999,-999.0,-999.0,100,0.00,,,0.00,WSDL version 420,2013-06-18 11:04:00,
2013-06-18 07:06:00,71.4,71.4,28.79,North,-999,-999.0,-999.0,100,0.00,,,0.00,WSDL version 420,2013-06-18 11:06:00,
2013-06-18 07:08:00,71.5,71.4,28.79,North,-999,-999.0,-999.0,100,0.00,,,0.00,WSDL version 420,2013-06-18 11:08:00,
2013-06-18 07:10:00,71.5,71.5,28.79,North,-999,-999.0,-999.0,100,0.00,,,0.00,WSDL version 420,2013-06-18 11:10:00,
2013-06-18 07:12:00,71.5,71.5,28.79,North,-999,-999.0,-999.0,100,0.00,,,0.00,WSDL version 420,2013-06-18 11:12:00,
2013-06-18 07:16:00,71.4,71.4,28.79,North,-999,-999.0,-999.0,100,0.00,,,0.00,WSDL version 420,2013-06-18 11:16:00,
2013-06-18 07:20:00,71.5,71.5,28.79,North,-999,-999.0,-999.0,100,0.00,,,0.00,WSDL version 420,2013-06-18 11:20:00,
2013-06-18 07:22:00,71.6,71.6,28.79,North,-999,-999.0,-999.0,100,0.00,,,0.00,WSDL version 420,2013-06-18 11:22:00,
2013-06-18 07:24:00,71.6,71.6,28.79,North,-999,-999.0,-999.0,100,0.00,,,0.00,WSDL version 420,2013-06-18 11:24:00,
2013-06-18 07:26:00,71.6,71.6,28.79,North,-999,-999.0,-999.0,100,0.00,,,0.00,WSDL version 420,2013-06-18 11:26:00,
2013-06-18 07:30:00,71.6,71.6,28.79,North,-999,-999.0,-999.0,100,0.00,,,0.00,WSDL version 420,2013-06-18 11:30:00,
2013-06-18 07:32:00,71.6,71.6,28.79,North,-999,-999.0,-999.0,100,0.00,,,0.00,WSDL version 420,2013-06-18 11:32:00,
2013-06-18 07:34:00,71.6,71.6,28.79,North,-999,-999.0,-999.0,100,0.00,,,0.00,WSDL version 420,2013-06-18 11:34:00,
2013-06-18 07:38:00,71.6,71.6,28.79,East,90,0.0,0.0,100,0.00,,,0.00,WSDL version 420,2013-06-18 11:38:00,
2013-06-18 07:40:00,71.6,71.6,28.79,North,-999,-999.0,-999.0,100,0.00,,,0.00,WSDL version 420,2013-06-18 11:40:00,
2013-06-18 07:42:00,71.6,71.6,28.79,South,180,0.0,0.0,100,0.00,,,0.00,WSDL version 420,2013-06-18 11:42:00,
2013-06-18 07:44:00,71.6,71.6,28.79,North,0,0.0,0.0,100,0.00,,,0.00,WSDL version 420,2013-06-18 11:44:00,
2013-06-18 07:48:00,71.6,71.6,28.79,North,-999,-999.0,-999.0,100,0.00,,,0.00,WSDL version 420,2013-06-18 11:48:00,
2013-06-18 07:50:00,71.6,71.6,28.79,North,-999,-999.0,-999.0,100,0.00,,,0.00,WSDL version 420,2013-06-18 11:50:00,
2013-06-18 07:56:00,71.8,71.8,28.79,North,-999,-999.0,-999.0,100,0.00,,,0.00,WSDL version 420,2013-06-18 11:56:00,
2013-06-18 07:58:00,71.8,71.8,28.79,North,-999,-999.0,-999.0,100,0.00,,,0.00,WSDL version 420,2013-06-18 11:58:00,
2013-06-18 08:00:00,71.9,71.9,28.79,North,-999,-999.0,-999.0,100,0.00,,,0.00,WSDL version 420,2013-06-18 12:00:00,
2013-06-18 08:04:00,72.1,72.0,28.79,SSE,158,0.0,0.0,100,0.00,,,0.00,WSDL version 420,2013-06-18 12:04:00,
2013-06-18 08:08:00,72.2,72.2,28.79,North,-999,-999.0,-999.0,100,0.00,,,0.00,WSDL version 420,2013-06-18 12:08:00,
2013-06-18 08:10:00,72.3,72.3,28.79,North,-999,-999.0,-999.0,100,0.00,,,0.00,WSDL version 420,2013-06-18 12:10:00,
2013-06-18 08:14:00,72.5,72.5,28.79,SSW,203,0.0,0.0,100,0.00,,,0.00,WSDL version 420,2013-06-18 12:14:00,
2013-06-18 08:18:00,72.6,72.6,28.79,North,-999,-999.0,-999.0,100,0.00,,,0.00,WSDL version 420,2013-06-18 12:18:00,
2013-06-18 08:20:00,72.6,72.6,28.79,North,-999,-999.0,-999.0,100,0.00,,,0.00,WSDL version 420,2013-06-18 12:20:00,
2013-06-18 08:24:00,72.7,72.7,28.79,WSW,248,0.0,0.0,100,0.00,,,0.00,WSDL version 420,2013-06-18 12:24:00,
2013-06-18 08:26:00,72.8,72.8,28.79,North,0,0.0,0.0,100,0.00,,,0.00,WSDL version 420,2013-06-18 12:26:00,
2013-06-18 08:28:00,72.9,72.9,28.79,North,-999,-999.0,-999.0,100,0.00,,,0.00,WSDL version 420,2013-06-18 12:28:00,
2013-06-18 08:34:00,73.0,72.9,28.79,North,-999,-999.0,-999.0,100,0.00,,,0.00,WSDL version 420,2013-06-18 12:34:00,
2013-06-18 08:36:00,73.0,73.0,28.79,North,-999,-999.0,-999.0,100,0.00,,,0.00,WSDL version 420,2013-06-18 12:36:00,
2013-06-18 08:40:00,73.0,73.0,28.79,SSW,203,0.0,0.0,100,0.00,,,0.00,WSDL version 420,2013-06-18 12:40:00,
2013-06-18 08:42:00,73.0,73.0,28.79,North,0,0.0,0.0,100,0.00,,,0.00,WSDL version 420,2013-06-18 12:42:00,
2013-06-18 08:44:00,73.0,73.0,28.79,North,-999,-999.0,-999.0,100,0.00,,,0.00,WSDL version 420,2013-06-18 12:44:00,
2013-06-18 08:46:00,73.0,73.0,28.79,North,-999,-999.0,-999.0,100,0.00,,,0.00,WSDL version 420,2013-06-18 12:46:00,
2013-06-18 08:50:00,73.0,73.0,28.79,North,-999,-999.0,-999.0,100,0.00,,,0.00,WSDL version 420,2013-06-18 12:50:00,
2013-06-18 08:54:00,73.1,73.1,28.79,North,-999,-999.0,-999.0,100,0.00,,,0.00,WSDL version 420,2013-06-18 12:54:00,
2013-06-18 08:56:00,73.1,73.1,28.79,South,180,0.0,0.0,100,0.00,,,0.00,WSDL version 420,2013-06-18 12:56:00,
2013-06-18 08:58:00,73.2,73.2,28.79,South,180,0.0,0.0,100,0.00,,,0.00,WSDL version 420,2013-06-18 12:58:00,
2013-06-18 09:02:00,73.3,73.2,28.79,North,-999,-999.0,-999.0,100,0.00,,,0.00,WSDL version 420,2013-06-18 13:02:00,
2013-06-18 09:04:00,73.3,73.3,28.79,North,-999,-999.0,-999.0,100,0.00,,,0.00,WSDL version 420,2013-06-18 13:04:00,
2013-06-18 09:08:00,73.5,73.5,28.82,North,-999,-999.0,-999.0,100,0.00,,,0.00,WSDL version 420,2013-06-18 13:08:00,
2013-06-18 09:10:00,73.6,73.6,28.82,North,-999,-999.0,-999.0,100,0.00,,,0.00,WSDL version 420,2013-06-18 13:10:00,
2013-06-18 09:12:00,73.7,73.7,28.82,North,-999,-999.0,-999.0,100,0.00,,,0.00,WSDL version 420,2013-06-18 13:12:00,
2013-06-18 09:14:00,73.8,73.8,28.82,North,-999,-999.0,-999.0,100,0.00,,,0.00,WSDL version 420,2013-06-18 13:14:00,
2013-06-18 09:18:00,73.8,73.8,28.82,North,-999,-999.0,-999.0,100,0.00,,,0.00,WSDL version 420,2013-06-18 13:18:00,
2013-06-18 09:20:00,73.9,73.9,28.82,North,-999,-999.0,-999.0,100,0.00,,,0.00,WSDL version 420,2013-06-18 13:20:00,
2013-06-18 09:24:00,74.1,74.1,28.82,ENE,68,0.0,0.0,100,0.00,,,0.00,WSDL version 420,2013-06-18 13:24:00,
2013-06-18 09:28:00,74.1,74.1,28.82,North,-999,-999.0,-999.0,100,0.00,,,0.00,WSDL version 420,2013-06-18 13:28:00,
2013-06-18 09:30:00,74.1,74.1,28.82,East,90,0.0,0.0,100,0.00,,,0.00,WSDL version 420,2013-06-18 13:30:00,
2013-06-18 09:34:00,74.1,74.1,28.82,South,180,0.0,0.0,100,0.00,,,0.00,WSDL version 420,2013-06-18 13:34:00,
2013-06-18 09:36:00,74.1,74.1,28.82,North,-999,-999.0,-999.0,100,0.00,,,0.00,WSDL version 420,2013-06-18 13:36:00,
2013-06-18 09:38:00,74.2,74.2,28.82,North,-999,-999.0,-999.0,100,0.00,,,0.00,WSDL version 420,2013-06-18 13:38:00,
2013-06-18 09:42:00,74.3,74.3,28.82,North,-999,-999.0,-999.0,100,0.00,,,0.00,WSDL version 420,2013-06-18 13:42:00,
2013-06-18 09:46:00,74.3,74.3,28.82,North,-999,-999.0,-999.0,100,0.00,,,0.00,WSDL version 420,2013-06-18 13:46:00,
2013-06-18 09:48:00,74.3,74.3,28.82,North,-999,-999.0,-999.0,100,0.00,,,0.00,WSDL version 420,2013-06-18 13:48:00,
2013-06-18 09:52:00,74.3,74.3,28.82,West,270,0.0,0.0,100,0.00,,,0.00,WSDL version 420,2013-06-18 13:52:00,
2013-06-18 09:54:00,74.2,74.2,28.82,West,270,0.0,0.0,100,0.00,,,0.00,WSDL version 420,2013-06-18 13:54:00,
2013-06-18 09:56:00,74.1,74.1,28.82,South,180,0.0,0.0,100,0.00,,,0.00,WSDL version 420,2013-06-18 13:56:00,
2013-06-18 09:58:00,74.1,74.1,28.82,North,-999,-999.0,-999.0,100,0.00,,,0.00,WSDL version 420,2013-06-18 13:58:00,
2013-06-18 10:00:00,74.1,74.1,28.82,North,-999,-999.0,-999.0,100,0.00,,,0.00,WSDL version 420,2013-06-18 14:00:00,
2013-06-18 10:02:00,74.0,74.0,28.82,North,-999,-999.0,-999.0,99,0.05,,,0.05,WSDL version 420,2013-06-18 14:02:00,
2013-06-18 10:04:00,74.0,73.8,28.82,North,-999,-999.0,-999.0,99,0.05,,,0.05,WSDL version 420,2013-06-18 14:04:00,
2013-06-18 10:08:00,73.8,73.5,28.82,North,-999,-999.0,-999.0,99,0.05,,,0.05,WSDL version 420,2013-06-18 14:08:00,
2013-06-18 10:10:00,73.8,73.3,28.82,North,-999,-999.0,-999.0,98,0.05,,,0.05,WSDL version 420,2013-06-18 14:10:00,
2013-06-18 10:12:00,73.7,73.1,28.82,North,-999,-999.0,-999.0,98,0.05,,,0.05,WSDL version 420,2013-06-18 14:12:00,
2013-06-18 10:14:00,73.7,73.0,28.82,North,-999,-999.0,-999.0,98,0.05,,,0.05,WSDL version 420,2013-06-18 14:14:00,
2013-06-18 10:16:00,73.6,72.9,28.82,North,-999,-999.0,-999.0,98,0.05,,,0.05,WSDL version 420,2013-06-18 14:16:00,
2013-06-18 10:18:00,73.5,72.7,28.82,North,-999,-999.0,-999.0,97,0.05,,,0.05,WSDL version 420,2013-06-18 14:18:00,
2013-06-18 10:20:00,73.5,72.5,28.82,South,180,0.0,0.0,97,0.05,,,0.05,WSDL version 420,2013-06-18 14:20:00,
2013-06-18 10:22:00,73.4,72.4,28.82,South,180,0.0,0.0,97,0.05,,,0.05,WSDL version 420,2013-06-18 14:22:00,
2013-06-18 10:24:00,73.4,72.4,28.82,North,-999,-999.0,-999.0,97,0.05,,,0.05,WSDL version 420,2013-06-18 14:24:00,
2013-06-18 10:28:00,73.2,72.2,28.82,North,-999,-999.0,-999.0,97,0.05,,,0.05,WSDL version 420,2013-06-18 14:28:00,
2013-06-18 10:30:00,73.2,72.2,28.82,NE,45,0.0,0.0,97,0.09,,,0.09,WSDL version 420,2013-06-18 14:30:00,
2013-06-18 10:32:00,73.2,72.2,28.82,North,-999,-999.0,-999.0,97,0.09,,,0.09,WSDL version 420,2013-06-18 14:32:00,
2013-06-18 10:34:00,73.2,72.2,28.82,North,-999,-999.0,-999.0,97,0.09,,,0.09,WSDL version 420,2013-06-18 14:34:00,
2013-06-18 10:36:00,73.2,72.2,28.82,North,-999,-999.0,-999.0,97,0.09,,,0.09,WSDL version 420,2013-06-18 14:36:00,
2013-06-18 10:42:00,73.2,72.2,28.82,North,-999,-999.0,-999.0,97,0.09,,,0.09,WSDL version 420,2013-06-18 14:42:00,
2013-06-18 10:44:00,73.2,72.2,28.82,North,-999,-999.0,-999.0,97,0.09,,,0.09,WSDL version 420,2013-06-18 14:44:00,
2013-06-18 10:46:00,73.1,72.1,28.82,North,-999,-999.0,-999.0,97,0.09,,,0.09,WSDL version 420,2013-06-18 14:46:00,
2013-06-18 10:48:00,73.0,72.0,28.82,North,-999,-999.0,-999.0,96,0.09,,,0.09,WSDL version 420,2013-06-18 14:48:00,
2013-06-18 10:52:00,73.0,71.8,28.82,North,-999,-999.0,-999.0,96,0.09,,,0.09,WSDL version 420,2013-06-18 14:52:00,
2013-06-18 10:54:00,73.0,71.7,28.82,North,-999,-999.0,-999.0,96,0.09,,,0.09,WSDL version 420,2013-06-18 14:54:00,
2013-06-18 10:58:00,72.9,71.5,28.82,North,-999,-999.0,-999.0,96,0.09,,,0.09,WSDL version 420,2013-06-18 14:58:00,
2013-06-18 11:00:00,72.9,71.6,28.82,North,-999,-999.0,-999.0,96,0.09,,,0.09,WSDL version 420,2013-06-18 15:00:00,
2013-06-18 11:02:00,73.0,71.7,28.82,North,-999,-999.0,-999.0,96,0.04,,,0.09,WSDL version 420,2013-06-18 15:02:00,
2013-06-18 11:04:00,73.0,71.7,28.82,North,-999,-999.0,-999.0,96,0.04,,,0.09,WSDL version 420,2013-06-18 15:04:00,
2013-06-18 11:06:00,73.0,71.7,28.79,North,-999,-999.0,-999.0,96,0.04,,,0.09,WSDL version 420,2013-06-18 15:06:00,
2013-06-18 11:08:00,73.1,71.8,28.79,SSW,203,0.0,0.0,97,0.04,,,0.09,WSDL version 420,2013-06-18 15:08:00,
2013-06-18 11:12:00,73.3,72.2,28.79,North,-999,-999.0,-999.0,97,0.04,,,0.09,WSDL version 420,2013-06-18 15:12:00,
2013-06-18 11:16:00,73.4,72.4,28.79,North,-999,-999.0,-999.0,97,0.04,,,0.09,WSDL version 420,2013-06-18 15:16:00,
2013-06-18 11:20:00,73.5,72.5,28.79,SSW,203,0.0,0.0,97,0.04,,,0.09,WSDL version 420,2013-06-18 15:20:00,
2013-06-18 11:22:00,73.6,72.6,28.79,North,0,0.0,0.0,97,0.04,,,0.09,WSDL version 420,2013-06-18 15:22:00,
2013-06-18 11:24:00,73.6,72.6,28.79,North,-999,-999.0,-999.0,98,0.04,,,0.09,WSDL version 420,2013-06-18 15:24:00,
2013-06-18 11:26:00,73.7,72.9,28.79,North,-999,-999.0,-999.0,98,0.04,,,0.09,WSDL version 420,2013-06-18 15:26:00,
2013-06-18 11:30:00,73.8,73.1,28.79,North,-999,-999.0,-999.0,98,0.00,,,0.09,WSDL version 420,2013-06-18 15:30:00,
2013-06-18 11:32:00,73.8,73.1,28.79,North,-999,-999.0,-999.0,98,0.00,,,0.09,WSDL version 420,2013-06-18 15:32:00,
2013-06-18 11:34:00,73.8,73.1,28.79,South,180,0.0,0.0,98,0.00,,,0.09,WSDL version 420,2013-06-18 15:34:00,
2013-06-18 11:38:00,73.8,73.1,28.79,North,0,0.0,0.0,98,0.00,,,0.09,WSDL version 420,2013-06-18 15:38:00,
2013-06-18 11:42:00,73.8,73.1,28.79,North,-999,-999.0,-999.0,98,0.00,,,0.09,WSDL version 420,2013-06-18 15:42:00,
2013-06-18 11:44:00,73.8,73.2,28.79,North,-999,-999.0,-999.0,98,0.00,,,0.09,WSDL version 420,2013-06-18 15:44:00,
2013-06-18 11:48:00,73.9,73.3,28.79,North,-999,-999.0,-999.0,98,0.00,,,0.09,WSDL version 420,2013-06-18 15:48:00,
2013-06-18 11:50:00,74.0,73.3,28.79,North,-999,-999.0,-999.0,98,0.00,,,0.09,WSDL version 420,2013-06-18 15:50:00,
2013-06-18 11:54:00,74.1,73.5,28.79,North,-999,-999.0,-999.0,98,0.00,,,0.09,WSDL version 420,2013-06-18 15:54:00,
2013-06-18 11:56:00,74.2,73.7,28.79,North,-999,-999.0,-999.0,99,0.00,,,0.09,WSDL version 420,2013-06-18 15:56:00,
2013-06-18 12:02:00,74.7,74.4,28.79,North,-999,-999.0,-999.0,100,0.00,,,0.09,WSDL version 420,2013-06-18 16:02:00,
2013-06-18 12:04:00,74.8,74.7,28.79,North,-999,-999.0,-999.0,100,0.00,,,0.09,WSDL version 420,2013-06-18 16:04:00,
2013-06-18 12:06:00,75.0,75.0,28.79,North,-999,-999.0,-999.0,100,0.00,,,0.09,WSDL version 420,2013-06-18 16:06:00,
2013-06-18 12:08:00,75.2,75.2,28.79,North,-999,-999.0,-999.0,100,0.00,,,0.09,WSDL version 420,2013-06-18 16:08:00,
2013-06-18 12:10:00,75.3,75.3,28.79,North,-999,-999.0,-999.0,100,0.00,,,0.09,WSDL version 420,2013-06-18 16:10:00,
2013-06-18 12:12:00,75.4,75.4,28.79,North,-999,-999.0,-999.0,100,0.00,,,0.09,WSDL version 420,2013-06-18 16:12:00,
2013-06-18 12:14:00,75.5,75.5,28.79,South,173,0.0,0.0,100,0.00,,,0.09,WSDL version 420,2013-06-18 16:14:00,
2013-06-18 12:16:00,75.6,75.6,28.79,North,-999,-999.0,-999.0,100,0.00,,,0.09,WSDL version 420,2013-06-18 16:16:00,
2013-06-18 12:18:00,75.6,75.6,28.79,SSE,158,0.0,0.0,100,0.00,,,0.09,WSDL version 420,2013-06-18 16:18:00,
2013-06-18 12:20:00,75.7,75.7,28.79,SSW,203,1.1,1.1,100,0.00,,,0.09,WSDL version 420,2013-06-18 16:20:00,
2013-06-18 12:22:00,75.8,75.8,28.79,South,180,0.0,1.1,100,0.00,,,0.09,WSDL version 420,2013-06-18 16:22:00,
2013-06-18 12:26:00,75.9,75.9,28.79,North,-999,-999.0,-999.0,100,0.00,,,0.09,WSDL version 420,2013-06-18 16:26:00,
2013-06-18 12:30:00,76.0,75.8,28.79,North,0,0.0,0.0,99,0.00,,,0.09,WSDL version 420,2013-06-18 16:30:00,
2013-06-18 12:32:00,76.2,75.9,28.79,SSE,158,0.0,0.0,99,0.00,,,0.09,WSDL version 420,2013-06-18 16:32:00,
2013-06-18 12:34:00,76.6,76.2,28.79,North,0,0.0,0.0,99,0.00,,,0.09,WSDL version 420,2013-06-18 16:34:00,
2013-06-18 12:38:00,77.3,77.0,28.79,North,0,0.0,0.0,99,0.00,,,0.09,WSDL version 420,2013-06-18 16:38:00,
2013-06-18 12:42:00,78.4,78.0,28.79,North,-999,-999.0,-999.0,98,0.00,,,0.09,WSDL version 420,2013-06-18 16:42:00,
2013-06-18 12:44:00,78.6,78.1,28.79,North,-999,-999.0,-999.0,98,0.00,,,0.09,WSDL version 420,2013-06-18 16:44:00,
2013-06-18 12:48:00,79.1,78.2,28.79,North,-999,-999.0,-999.0,96,0.00,,,0.09,WSDL version 420,2013-06-18 16:48:00,
2013-06-18 12:50:00,79.4,78.0,28.79,North,-999,-999.0,-999.0,94,0.00,,,0.09,WSDL version 420,2013-06-18 16:50:00,
2013-06-18 12:52:00,79.6,77.8,28.79,North,-999,-999.0,-999.0,93,0.00,,,0.09,WSDL version 420,2013-06-18 16:52:00,
2013-06-18 12:56:00,79.9,77.2,28.79,North,-999,-999.0,-999.0,90,0.00,,,0.09,WSDL version 420,2013-06-18 16:56:00,
2013-06-18 12:58:00,80.2,77.0,28.79,North,-999,-999.0,-999.0,89,0.00,,,0.09,WSDL version 420,2013-06-18 16:58:00,
2013-06-18 13:00:00,80.4,76.8,28.79,North,-999,-999.0,-999.0,88,0.00,,,0.09,WSDL version 420,2013-06-18 17:00:00,
2013-06-18 13:02:00,80.7,76.7,28.79,North,-999,-999.0,-999.0,87,0.00,,,0.09,WSDL version 420,2013-06-18 17:02:00,
2013-06-18 13:08:00,80.9,75.3,28.76,North,-999,-999.0,-999.0,81,0.00,,,0.09,WSDL version 420,2013-06-18 17:08:00,
2013-06-18 13:10:00,81.0,74.5,28.76,North,-999,-999.0,-999.0,79,0.00,,,0.09,WSDL version 420,2013-06-18 17:10:00,
2013-06-18 13:12:00,81.1,73.8,28.76,North,-999,-999.0,-999.0,76,0.00,,,0.09,WSDL version 420,2013-06-18 17:12:00,
2013-06-18 13:14:00,81.2,73.2,28.76,WNW,293,0.0,0.0,75,0.00,,,0.09,WSDL version 420,2013-06-18 17:14:00,
2013-06-18 13:18:00,81.5,72.5,28.76,North,-999,-999.0,-999.0,74,0.00,,,0.09,WSDL version 420,2013-06-18 17:18:00,
2013-06-18 13:20:00,81.7,72.6,28.76,North,-999,-999.0,-999.0,73,0.00,,,0.09,WSDL version 420,2013-06-18 17:20:00,
2013-06-18 13:22:00,82.1,72.8,28.76,South,180,0.0,2.7,73,0.00,,,0.09,WSDL version 420,2013-06-18 17:22:00,
2013-06-18 13:24:00,82.5,72.9,28.76,South,180,0.0,2.7,73,0.00,,,0.09,WSDL version 420,2013-06-18 17:24:00,
2013-06-18 13:26:00,82.7,72.9,28.76,North,-999,-999.0,-999.0,71,0.00,,,0.09,WSDL version 420,2013-06-18 17:26:00,
2013-06-18 13:30:00,83.1,72.5,28.76,South,180,1.6,2.7,70,0.00,,,0.09,WSDL version 420,2013-06-18 17:30:00,
2013-06-18 13:32:00,83.3,72.2,28.76,North,-999,-999.0,-999.0,68,0.00,,,0.09,WSDL version 420,2013-06-18 17:32:00,
2013-06-18 13:36:00,83.3,71.4,28.76,North,-999,-999.0,-999.0,67,0.00,,,0.09,WSDL version 420,2013-06-18 17:36:00,
2013-06-18 13:38:00,83.1,71.1,28.76,SW,225,0.9,2.7,67,0.00,,,0.09,WSDL version 420,2013-06-18 17:38:00,
2013-06-18 13:40:00,82.8,70.5,28.76,South,191,0.0,0.0,66,0.00,,,0.09,WSDL version 420,2013-06-18 17:40:00,
2013-06-18 13:42:00,82.8,70.2,28.76,North,-999,-999.0,-999.0,66,0.00,,,0.09,WSDL version 420,2013-06-18 17:42:00,
2013-06-18 13:44:00,82.8,70.1,28.76,SSW,203,0.0,0.0,65,0.00,,,0.09,WSDL version 420,2013-06-18 17:44:00,
2013-06-18 13:46:00,82.7,69.9,28.76,SSW,203,0.0,0.0,65,0.00,,,0.09,WSDL version 420,2013-06-18 17:46:00,
2013-06-18 13:48:00,82.3,69.4,28.76,North,-999,-999.0,-999.0,65,0.00,,,0.09,WSDL version 420,2013-06-18 17:48:00,
2013-06-18 13:50:00,82.0,69.1,28.76,North,-999,-999.0,-999.0,65,0.00,,,0.09,WSDL version 420,2013-06-18 17:50:00,
2013-06-18 13:52:00,81.7,68.7,28.76,North,-999,-999.0,-999.0,64,0.00,,,0.09,WSDL version 420,2013-06-18 17:52:00,
2013-06-18 13:54:00,81.3,67.9,28.76,North,-999,-999.0,-999.0,63,0.00,,,0.09,WSDL version 420,2013-06-18 17:54:00,
2013-06-18 13:56:00,81.0,67.4,28.76,SW,225,0.0,0.9,63,0.00,,,0.09,WSDL version 420,2013-06-18 17:56:00,
2013-06-18 14:00:00,80.8,67.3,28.76,North,-999,-999.0,-999.0,64,0.00,,,0.09,WSDL version 420,2013-06-18 18:00:00,
2013-06-18 14:02:00,81.0,67.6,28.76,North,-999,-999.0,-999.0,64,0.00,,,0.09,WSDL version 420,2013-06-18 18:02:00,
2013-06-18 14:04:00,81.4,68.0,28.76,North,-999,-999.0,-999.0,63,0.00,,,0.09,WSDL version 420,2013-06-18 18:04:00,
2013-06-18 14:06:00,81.9,68.2,28.73,North,-999,-999.0,-999.0,63,0.00,,,0.09,WSDL version 420,2013-06-18 18:06:00,
2013-06-18 14:08:00,82.3,68.5,28.73,SW,225,0.0,0.0,63,0.00,,,0.09,WSDL version 420,2013-06-18 18:08:00,
2013-06-18 14:14:00,83.4,69.0,28.73,North,-999,-999.0,-999.0,61,0.00,,,0.09,WSDL version 420,2013-06-18 18:14:00,
2013-06-18 14:16:00,83.6,68.9,28.73,SSW,203,0.0,0.0,61,0.00,,,0.09,WSDL version 420,2013-06-18 18:16:00,
2013-06-18 14:20:00,83.9,68.8,28.73,North,0,0.0,0.0,60,0.00,,,0.09,WSDL version 420,2013-06-18 18:20:00,
2013-06-18 14:24:00,84.1,68.6,28.76,North,-999,-999.0,-999.0,58,0.00,,,0.09,WSDL version 420,2013-06-18 18:24:00,
2013-06-18 14:26:00,84.3,68.3,28.76,WSW,248,0.0,0.0,59,0.00,,,0.09,WSDL version 420,2013-06-18 18:26:00,
2013-06-18 14:30:00,84.5,68.7,28.76,West,270,1.3,0.0,58,0.00,,,0.09,WSDL version 420,2013-06-18 18:30:00,
2013-06-18 14:32:00,84.6,68.3,28.76,West,270,0.0,0.0,57,0.00,,,0.09,WSDL version 420,2013-06-18 18:32:00,
2013-06-18 14:34:00,84.5,67.9,28.76,North,0,0.0,0.0,58,0.00,,,0.09,WSDL version 420,2013-06-18 18:34:00,
2013-06-18 14:38:00,84.5,67.7,28.73,North,-999,-999.0,-999.0,54,0.00,,,0.09,WSDL version 420,2013-06-18 18:38:00,
2013-06-18 14:40:00,84.5,67.2,28.73,WSW,248,0.0,0.0,56,0.00,,,0.09,WSDL version 420,2013-06-18 18:40:00,
2013-06-18 14:42:00,84.7,67.6,28.73,North,0,0.0,0.0,58,0.00,,,0.09,WSDL version 420,2013-06-18 18:42:00,
2013-06-18 14:44:00,84.8,68.0,28.73,North,-999,-999.0,-999.0,58,0.00,,,0.09,WSDL version 420,2013-06-18 18:44:00,
2013-06-18 14:48:00,84.6,67.5,28.73,North,-999,-999.0,-999.0,57,0.00,,,0.09,WSDL version 420,2013-06-18 18:48:00,
2013-06-18 14:50:00,84.7,67.9,28.73,North,-999,-999.0,-999.0,58,0.00,,,0.09,WSDL version 420,2013-06-18 18:50:00,
2013-06-18 14:52:00,85.0,68.2,28.73,North,-999,-999.0,-999.0,56,0.00,,,0.09,WSDL version 420,2013-06-18 18:52:00,
2013-06-18 14:56:00,85.0,67.8,28.73,North,0,0.0,0.0,57,0.00,,,0.09,WSDL version 420,2013-06-18 18:56:00,
2013-06-18 15:00:00,84.7,67.3,28.73,North,-999,-999.0,-999.0,55,0.00,,,0.09,WSDL version 420,2013-06-18 19:00:00,
2013-06-18 15:02:00,84.4,66.9,28.73,North,-999,-999.0,-999.0,57,0.00,,,0.09,WSDL version 420,2013-06-18 19:02:00,
2013-06-18 15:06:00,84.5,67.3,28.76,SSW,203,0.0,0.0,57,0.00,,,0.09,WSDL version 420,2013-06-18 19:06:00,
2013-06-18 15:10:00,84.2,66.7,28.76,South,180,0.0,0.9,56,0.00,,,0.09,WSDL version 420,2013-06-18 19:10:00,
2013-06-18 15:12:00,84.0,66.4,28.76,West,270,0.0,0.9,56,0.00,,,0.09,WSDL version 420,2013-06-18 19:12:00,
2013-06-18 15:14:00,83.8,66.6,28.76,SW,225,0.0,0.9,57,0.00,,,0.09,WSDL version 420,2013-06-18 19:14:00,
2013-06-18 15:16:00,83.6,66.5,28.76,North,0,0.0,0.9,56,0.00,,,0.09,WSDL version 420,2013-06-18 19:16:00,
2013-06-18 15:20:00,83.1,65.8,28.76,North,-999,-999.0,-999.0,57,0.00,,,0.09,WSDL version 420,2013-06-18 19:20:00,
2013-06-18 15:22:00,82.9,65.7,28.76,South,180,0.0,0.0,57,0.00,,,0.09,WSDL version 420,2013-06-18 19:22:00,
2013-06-18 15:24:00,82.6,65.7,28.76,North,-999,-999.0,-999.0,56,0.00,,,0.09,WSDL version 420,2013-06-18 19:24:00,
2013-06-18 15:28:00,82.1,65.1,28.76,North,-999,-999.0,-999.0,57,0.00,,,0.09,WSDL version 420,2013-06-18 19:28:00,
2013-06-18 15:32:00,81.7,65.5,28.76,North,0,0.0,0.0,58,0.00,,,0.09,WSDL version 420,2013-06-18 19:32:00,
2013-06-18 15:34:00,81.6,65.5,28.76,North,-999,-999.0,-999.0,58,0.00,,,0.09,WSDL version 420,2013-06-18 19:34:00,
2013-06-18 15:36:00,81.5,65.5,28.73,North,-999,-999.0,-999.0,59,0.00,,,0.09,WSDL version 420,2013-06-18 19:36:00,
2013-06-18 15:38:00,81.5,65.7,28.73,West,270,0.0,0.0,60,0.00,,,0.09,WSDL version 420,2013-06-18 19:38:00,
2013-06-18 15:42:00,81.9,66.8,28.73,North,-999,-999.0,-999.0,60,0.00,,,0.09,WSDL version 420,2013-06-18 19:42:00,
2013-06-18 15:44:00,81.9,66.5,28.73,SW,236,0.0,0.0,59,0.00,,,0.09,WSDL version 420,2013-06-18 19:44:00,
2013-06-18 15:48:00,81.8,66.2,28.73,SSW,203,0.0,0.0,59,0.00,,,0.09,WSDL version 420,2013-06-18 19:48:00,
2013-06-18 15:50:00,81.7,66.0,28.73,North,-999,-999.0,-999.0,59,0.00,,,0.09,WSDL version 420,2013-06-18 19:50:00,
2013-06-18 15:52:00,81.8,66.3,28.73,SSW,203,0.0,0.0,61,0.00,,,0.09,WSDL version 420,2013-06-18 19:52:00,
2013-06-18 15:56:00,82.0,67.2,28.73,WSW,248,1.1,0.0,61,0.00,,,0.09,WSDL version 420,2013-06-18 19:56:00,
2013-06-18 15:58:00,82.1,67.3,28.73,WSW,248,0.0,0.0,61,0.00,,,0.09,WSDL version 420,2013-06-18 19:58:00,
2013-06-18 16:00:00,82.2,67.3,28.73,North,0,0.0,0.0,61,0.00,,,0.09,WSDL version 420,2013-06-18 20:00:00,
2013-06-18 16:02:00,82.1,67.3,28.73,North,-999,-999.0,-999.0,60,0.00,,,0.09,WSDL version 420,2013-06-18 20:02:00,
2013-06-18 16:04:00,82.0,67.1,28.73,SSW,203,0.0,0.0,61,0.00,,,0.09,WSDL version 420,2013-06-18 20:04:00,
2013-06-18 16:10:00,81.6,67.0,28.73,North,-999,-999.0,-999.0,61,0.00,,,0.09,WSDL version 420,2013-06-18 20:10:00,
2013-06-18 16:12:00,81.6,67.0,28.73,North,-999,-999.0,-999.0,62,0.00,,,0.09,WSDL version 420,2013-06-18 20:12:00,
2013-06-18 16:14:00,81.5,67.2,28.73,North,-999,-999.0,-999.0,62,0.00,,,0.09,WSDL version 420,2013-06-18 20:14:00,
2013-06-18 16:20:00,81.2,66.6,28.73,North,-999,-999.0,-999.0,61,0.00,,,0.09,WSDL version 420,2013-06-18 20:20:00,
2013-06-18 16:22:00,81.1,66.3,28.73,North,-999,-999.0,-999.0,61,0.00,,,0.09,WSDL version 420,2013-06-18 20:22:00,
2013-06-18 16:26:00,80.8,65.9,28.73,South,180,0.0,2.5,61,0.00,,,0.09,WSDL version 420,2013-06-18 20:26:00,
2013-06-18 16:28:00,80.7,65.6,28.73,SSW,203,1.1,2.5,60,0.00,,,0.09,WSDL version 420,2013-06-18 20:28:00,
2013-06-18 16:34:00,80.6,65.9,28.73,North,-999,-999.0,-999.0,61,0.00,,,0.09,WSDL version 420,2013-06-18 20:34:00,
2013-06-18 16:36:00,80.5,65.9,28.73,North,-999,-999.0,-999.0,61,0.00,,,0.09,WSDL version 420,2013-06-18 20:36:00,
2013-06-18 16:38:00,80.5,65.8,28.73,North,-999,-999.0,-999.0,61,0.00,,,0.09,WSDL version 420,2013-06-18 20:38:00,
2013-06-18 16:40:00,80.4,65.7,28.73,North,-999,-999.0,-999.0,61,0.00,,,0.09,WSDL version 420,2013-06-18 20:40:00,
2013-06-18 16:44:00,80.2,65.6,28.73,North,-999,-999.0,-999.0,61,0.00,,,0.09,WSDL version 420,2013-06-18 20:44:00,
2013-06-18 16:46:00,80.2,65.7,28.73,SSW,203,2.0,2.7,62,0.00,,,0.09,WSDL version 420,2013-06-18 20:46:00,
2013-06-18 16:52:00,80.2,65.8,28.73,North,-999,-999.0,-999.0,61,0.00,,,0.09,WSDL version 420,2013-06-18 20:52:00,
2013-06-18 16:54:00,80.2,65.8,28.73,North,-999,-999.0,-999.0,62,0.00,,,0.09,WSDL version 420,2013-06-18 20:54:00,
2013-06-18 16:58:00,80.2,66.0,28.73,SSW,203,1.6,2.5,62,0.00,,,0.09,WSDL version 420,2013-06-18 20:58:00,
2013-06-18 17:00:00,80.1,65.9,28.73,North,-999,-999.0,-999.0,62,0.00,,,0.09,WSDL version 420,2013-06-18 21:00:00,
2013-06-18 17:02:00,80.0,65.9,28.73,North,-999,-999.0,-999.0,63,0.00,,,0.09,WSDL version 420,2013-06-18 21:02:00,
2013-06-18 17:04:00,79.9,65.8,28.73,North,-999,-999.0,-999.0,62,0.00,,,0.09,WSDL version 420,2013-06-18 21:04:00,
2013-06-18 17:10:00,79.4,64.0,28.73,NNE,23,0.0,2.9,58,0.00,,,0.09,WSDL version 420,2013-06-18 21:10:00,
2013-06-18 17:14:00,79.3,62.9,28.73,North,-999,-999.0,-999.0,56,0.00,,,0.09,WSDL version 420,2013-06-18 21:14:00,
2013-06-18 17:16:00,79.3,62.2,28.73,North,-999,-999.0,-999.0,54,0.00,,,0.09,WSDL version 420,2013-06-18 21:16:00,
2013-06-18 17:22:00,78.7,59.2,28.73,North,-999,-999.0,-999.0,52,0.00,,,0.09,WSDL version 420,2013-06-18 21:22:00,
2013-06-18 17:24:00,78.6,59.2,28.73,North,-999,-999.0,-999.0,52,0.00,,,0.09,WSDL version 420,2013-06-18 21:24:00,
2013-06-18 17:26:00,78.4,59.1,28.73,North,-999,-999.0,-999.0,51,0.00,,,0.09,WSDL version 420,2013-06-18 21:26:00,
2013-06-18 17:30:00,78.2,59.1,28.73,North,-999,-999.0,-999.0,52,0.00,,,0.09,WSDL version 420,2013-06-18 21:30:00,
2013-06-18 17:34:00,78.0,59.3,28.73,NNE,23,1.6,2.7,53,0.00,,,0.09,WSDL version 420,2013-06-18 21:34:00,
2013-06-18 17:36:00,78.0,59.5,28.73,North,-999,-999.0,-999.0,53,0.00,,,0.09,WSDL version 420,2013-06-18 21:36:00,
2013-06-18 17:38:00,77.8,59.4,28.73,North,-999,-999.0,-999.0,53,0.00,,,0.09,WSDL version 420,2013-06-18 21:38:00,
2013-06-18 17:42:00,77.7,59.5,28.73,NE,45,0.0,1.3,54,0.00,,,0.09,WSDL version 420,2013-06-18 21:42:00,
2013-06-18 17:46:00,77.5,59.8,28.73,North,-999,-999.0,-999.0,55,0.00,,,0.09,WSDL version 420,2013-06-18 21:46:00,
2013-06-18 17:48:00,77.5,59.9,28.73,North,-999,-999.0,-999.0,55,0.00,,,0.09,WSDL version 420,2013-06-18 21:48:00,
2013-06-18 17:50:00,77.5,60.0,28.73,North,-999,-999.0,-999.0,55,0.00,,,0.09,WSDL version 420,2013-06-18 21:50:00,
2013-06-18 17:52:00,77.6,60.1,28.73,North,360,0.0,0.0,55,0.00,,,0.09,WSDL version 420,2013-06-18 21:52:00,
2013-06-18 17:56:00,77.7,60.3,28.73,East,79,1.1,1.6,55,0.00,,,0.09,WSDL version 420,2013-06-18 21:56:00,
2013-06-18 17:58:00,77.8,60.5,28.73,NE,45,0.7,2.5,55,0.00,,,0.09,WSDL version 420,2013-06-18 21:58:00,
2013-06-18 18:00:00,77.9,60.5,28.73,North,-999,-999.0,-999.0,55,0.00,,,0.09,WSDL version 420,2013-06-18 22:00:00,
2013-06-18 18:02:00,77.9,60.5,28.73,NE,45,2.0,2.5,55,0.00,,,0.09,WSDL version 420,2013-06-18 22:02:00,
2013-06-18 18:04:00,77.9,60.7,28.73,North,-999,-999.0,-999.0,56,0.00,,,0.09,WSDL version 420,2013-06-18 22:04:00,
2013-06-18 18:06:00,77.9,60.9,28.73,North,-999,-999.0,-999.0,56,0.00,,,0.09,WSDL version 420,2013-06-18 22:06:00,
2013-06-18 18:10:00,78.0,60.6,28.73,North,360,0.0,1.6,55,0.00,,,0.09,WSDL version 420,2013-06-18 22:10:00,
2013-06-18 18:12:00,78.0,60.3,28.73,North,0,0.0,1.6,54,0.00,,,0.09,WSDL version 420,2013-06-18 22:12:00,
2013-06-18 18:14:00,78.1,60.2,28.73,North,-999,-999.0,-999.0,54,0.00,,,0.09,WSDL version 420,2013-06-18 22:14:00,
2013-06-18 18:16:00,78.1,60.3,28.73,North,-999,-999.0,-999.0,55,0.00,,,0.09,WSDL version 420,2013-06-18 22:16:00,
2013-06-18 18:18:00,78.1,60.4,28.73,NE,45,0.0,1.6,55,0.00,,,0.09,WSDL version 420,2013-06-18 22:18:00,
2013-06-18 18:24:00,78.0,60.2,28.73,North,-999,-999.0,-999.0,54,0.00,,,0.09,WSDL version 420,2013-06-18 22:24:00,
2013-06-18 18:26:00,78.0,60.0,28.73,North,-999,-999.0,-999.0,54,0.00,,,0.09,WSDL version 420,2013-06-18 22:26:00,
2013-06-18 18:28:00,77.9,59.8,28.73,North,-999,-999.0,-999.0,53,0.00,,,0.09,WSDL version 420,2013-06-18 22:28:00,
2013-06-18 18:30:00,77.9,59.8,28.73,North,-999,-999.0,-999.0,54,0.00,,,0.09,WSDL version 420,2013-06-18 22:30:00,
2013-06-18 18:34:00,77.9,59.9,28.73,North,-999,-999.0,-999.0,54,0.00,,,0.09,WSDL version 420,2013-06-18 22:34:00,
2013-06-18 18:36:00,77.9,59.9,28.76,SSE,158,0.9,1.6,54,0.00,,,0.09,WSDL version 420,2013-06-18 22:36:00,
2013-06-18 18:38:00,77.8,60.0,28.76,North,-999,-999.0,-999.0,55,0.00,,,0.09,WSDL version 420,2013-06-18 22:38:00,
2013-06-18 18:40:00,77.8,60.1,28.76,North,-999,-999.0,-999.0,55,0.00,,,0.09,WSDL version 420,2013-06-18 22:40:00,
2013-06-18 18:42:00,77.7,60.2,28.76,SSW,203,0.0,1.6,54,0.00,,,0.09,WSDL version 420,2013-06-18 22:42:00,
2013-06-18 18:44:00,77.7,60.1,28.76,North,-999,-999.0,-999.0,55,0.00,,,0.09,WSDL version 420,2013-06-18 22:44:00,
2013-06-18 18:50:00,77.5,59.8,28.76,SSE,158,0.0,0.0,55,0.00,,,0.09,WSDL version 420,2013-06-18 22:50:00,
2013-06-18 18:52:00,77.5,60.0,28.76,WSW,255,0.0,2.5,55,0.00,,,0.09,WSDL version 420,2013-06-18 22:52:00,
2013-06-18 18:56:00,77.4,60.1,28.76,North,360,1.1,2.5,56,0.00,,,0.09,WSDL version 420,2013-06-18 22:56:00,
2013-06-18 19:02:00,77.2,59.8,28.76,North,-999,-999.0,-999.0,55,0.00,,,0.09,WSDL version 420,2013-06-18 23:02:00,
2013-06-18 19:06:00,77.2,59.8,28.76,North,-999,-999.0,-999.0,55,0.00,,,0.09,WSDL version 420,2013-06-18 23:06:00,
2013-06-18 19:08:00,77.2,59.8,28.76,North,-999,-999.0,-999.0,55,0.00,,,0.09,WSDL version 420,2013-06-18 23:08:00,
2013-06-18 19:10:00,77.1,59.7,28.76,North,-999,-999.0,-999.0,55,0.00,,,0.09,WSDL version 420,2013-06-18 23:10:00,
2013-06-18 19:12:00,77.0,59.6,28.76,North,-999,-999.0,-999.0,55,0.00,,,0.09,WSDL version 420,2013-06-18 23:12:00,
2013-06-18 19:18:00,76.9,59.6,28.76,North,-999,-999.0,-999.0,55,0.00,,,0.09,WSDL version 420,2013-06-18 23:18:00,
2013-06-18 19:20:00,76.8,59.5,28.76,North,-999,-999.0,-999.0,55,0.00,,,0.09,WSDL version 420,2013-06-18 23:20:00,
2013-06-18 19:22:00,76.8,59.4,28.73,North,-999,-999.0,-999.0,55,0.00,,,0.09,WSDL version 420,2013-06-18 23:22:00,
2013-06-18 19:24:00,76.7,59.5,28.73,North,-999,-999.0,-999.0,56,0.00,,,0.09,WSDL version 420,2013-06-18 23:24:00,
2013-06-18 19:28:00,76.5,59.7,28.73,North,0,0.0,0.0,56,0.00,,,0.09,WSDL version 420,2013-06-18 23:28:00,
2013-06-18 19:30:00,76.4,59.9,28.73,North,-999,-999.0,-999.0,58,0.00,,,0.09,WSDL version 420,2013-06-18 23:30:00,
2013-06-18 19:32:00,76.4,60.0,28.73,North,-999,-999.0,-999.0,57,0.00,,,0.09,WSDL version 420,2013-06-18 23:32:00,
2013-06-18 19:34:00,76.3,59.9,28.73,SSE,158,0.0,0.0,56,0.00,,,0.09,WSDL version 420,2013-06-18 23:34:00,
2013-06-18 19:38:00,76.1,59.4,28.73,North,-999,-999.0,-999.0,56,0.00,,,0.09,WSDL version 420,2013-06-18 23:38:00,
2013-06-18 19:40:00,76.1,59.4,28.73,North,-999,-999.0,-999.0,56,0.00,,,0.09,WSDL version 420,2013-06-18 23:40:00,
2013-06-18 19:42:00,76.0,59.1,28.73,North,-999,-999.0,-999.0,56,0.00,,,0.09,WSDL version 420,2013-06-18 23:42:00,
2013-06-18 19:44:00,76.0,58.9,28.73,North,-999,-999.0,-999.0,55,0.00,,,0.09,WSDL version 420,2013-06-18 23:44:00,
2013-06-18 19:46:00,75.9,58.8,28.73,North,-999,-999.0,-999.0,55,0.00,,,0.09,WSDL version 420,2013-06-18 23:46:00,
2013-06-18 19:48:00,75.9,58.6,28.73,South,180,0.9,2.9,55,0.00,,,0.09,WSDL version 420,2013-06-18 23:48:00,
2013-06-18 19:50:00,75.8,58.2,28.73,North,0,0.0,2.9,53,0.00,,,0.09,WSDL version 420,2013-06-18 23:50:00,
2013-06-18 19:52:00,75.7,57.7,28.73,North,-999,-999.0,-999.0,52,0.00,,,0.09,WSDL version 420,2013-06-18 23:52:00,
2013-06-18 19:54:00,75.7,57.3,28.73,North,-999,-999.0,-999.0,52,0.00,,,0.09,WSDL version 420,2013-06-18 23:54:00,
2013-06-18 19:56:00,75.7,57.2,28.73,North,-999,-999.0,-999.0,53,0.00,,,0.09,WSDL version 420,2013-06-18 23:56:00,
2013-06-18 20:00:00,75.5,57.1,28.73,NW,315,0.0,0.9,53,0.00,,,0.09,WSDL version 420,2013-06-19 00:00:00,
2013-06-18 20:02:00,75.5,57.1,28.73,North,360,2.2,2.2,53,0.00,,,0.09,WSDL version 420,2013-06-19 00:02:00,
2013-06-18 20:06:00,75.4,56.7,28.73,North,-999,-999.0,-999.0,52,0.00,,,0.09,WSDL version 420,2013-06-19 00:06:00,
2013-06-18 20:12:00,75.3,56.7,28.73,North,-999,-999.0,-999.0,52,0.00,,,0.09,WSDL version 420,2013-06-19 00:12:00,
2013-06-18 20:14:00,75.2,56.4,28.73,North,-999,-999.0,-999.0,52,0.00,,,0.09,WSDL version 420,2013-06-19 00:14:00,
2013-06-18 20:18:00,75.2,56.4,28.73,North,-999,-999.0,-999.0,52,0.00,,,0.09,WSDL version 420,2013-06-19 00:18:00,
2013-06-18 20:20:00,75.1,56.3,28.73,North,360,0.0,0.0,52,0.00,,,0.09,WSDL version 420,2013-06-19 00:20:00,
2013-06-18 20:24:00,75.0,56.2,28.76,North,0,0.0,0.0,52,0.00,,,0.09,WSDL version 420,2013-06-19 00:24:00,
2013-06-18 20:26:00,74.9,56.1,28.76,North,360,1.0,1.6,52,0.00,,,0.09,WSDL version 420,2013-06-19 00:26:00,
2013-06-18 20:28:00,74.8,56.1,28.76,North,0,0.0,1.6,52,0.00,,,0.09,WSDL version 420,2013-06-19 00:28:00,
2013-06-18 20:32:00,74.8,56.0,28.76,North,360,0.9,2.2,52,0.00,,,0.09,WSDL version 420,2013-06-19 00:32:00,
2013-06-18 20:34:00,74.8,56.0,28.76,North,0,0.0,2.2,52,0.00,,,0.09,WSDL version 420,2013-06-19 00:34:00,
2013-06-18 20:36:00,74.7,55.9,28.76,NE,45,0.9,2.2,52,0.00,,,0.09,WSDL version 420,2013-06-19 00:36:00,
2013-06-18 20:38:00,74.6,55.8,28.76,NE,45,0.0,2.2,52,0.00,,,0.09,WSDL version 420,2013-06-19 00:38:00,
2013-06-18 20:40:00,74.5,55.8,28.76,North,0,0.0,0.0,52,0.00,,,0.09,WSDL version 420,2013-06-19 00:40:00,
2013-06-18 20:42:00,74.5,55.7,28.76,SE,135,0.0,0.0,52,0.00,,,0.09,WSDL version 420,2013-06-19 00:42:00,
2013-06-18 20:44:00,74.4,55.8,28.76,SE,135,0.0,0.0,53,0.00,,,0.09,WSDL version 420,2013-06-19 00:44:00,
2013-06-18 20:48:00,74.3,56.0,28.76,WNW,293,0.0,0.0,53,0.00,,,0.09,WSDL version 420,2013-06-19 00:48:00,
2013-06-18 20:50:00,74.2,55.9,28.76,SSE,158,0.0,0.0,53,0.00,,,0.09,WSDL version 420,2013-06-19 00:50:00,
2013-06-18 20:52:00,74.2,55.9,28.76,NE,45,0.0,0.0,53,0.00,,,0.09,WSDL version 420,2013-06-19 00:52:00,
2013-06-18 20:54:00,74.1,55.9,28.76,North,-999,-999.0,-999.0,54,0.00,,,0.09,WSDL version 420,2013-06-19 00:54:00,
2013-06-18 20:56:00,74.0,56.1,28.76,NE,45,0.0,0.0,54,0.00,,,0.09,WSDL version 420,2013-06-19 00:56:00,
2013-06-18 20:58:00,73.9,56.3,28.76,North,0,0.0,0.0,54,0.00,,,0.09,WSDL version 420,2013-06-19 00:58:00,
2013-06-18 21:00:00,73.9,56.1,28.76,North,-999,-999.0,-999.0,53,0.00,,,0.09,WSDL version 420,2013-06-19 01:00:00,
2013-06-18 21:04:00,73.7,55.6,28.76,North,360,0.0,0.0,53,0.00,,,0.09,WSDL version 420,2013-06-19 01:04:00,
2013-06-18 21:06:00,73.7,55.8,28.76,NE,45,0.0,0.0,54,0.00,,,0.09,WSDL version 420,2013-06-19 01:06:00,
2013-06-18 21:08:00,73.5,55.8,28.76,East,90,0.0,0.0,54,0.00,,,0.09,WSDL version 420,2013-06-19 01:08:00,
2013-06-18 21:10:00,73.5,55.9,28.76,East,90,0.0,0.0,54,0.00,,,0.09,WSDL version 420,2013-06-19 01:10:00,
2013-06-18 21:16:00,73.2,55.9,28.76,SE,135,0.0,0.0,54,0.00,,,0.09,WSDL version 420,2013-06-19 01:16:00,
2013-06-18 21:18:00,73.2,55.8,28.76,SE,135,0.0,0.0,54,0.00,,,0.09,WSDL version 420,2013-06-19 01:18:00,
2013-06-18 21:20:00,73.2,55.5,28.76,SE,135,0.0,0.0,54,0.00,,,0.09,WSDL version 420,2013-06-19 01:20:00,
2013-06-18 21:22:00,73.1,55.6,28.76,North,-999,-999.0,-999.0,55,0.00,,,0.09,WSDL version 420,2013-06-19 01:22:00,
2013-06-18 21:26:00,73.0,56.2,28.76,North,-999,-999.0,-999.0,56,0.00,,,0.09,WSDL version 420,2013-06-19 01:26:00,
2013-06-18 21:30:00,72.8,56.2,28.76,SSE,158,0.0,0.0,56,0.00,,,0.09,WSDL version 420,2013-06-19 01:30:00,
2013-06-18 21:34:00,72.7,56.1,28.76,North,0,0.0,0.0,56,0.00,,,0.09,WSDL version 420,2013-06-19 01:34:00,
2013-06-18 21:36:00,72.6,56.1,28.76,North,-999,-999.0,-999.0,56,0.00,,,0.09,WSDL version 420,2013-06-19 01:36:00,
2013-06-18 21:40:00,72.5,55.9,28.76,North,-999,-999.0,-999.0,56,0.00,,,0.09,WSDL version 420,2013-06-19 01:40:00,
2013-06-18 21:46:00,72.3,55.8,28.76,North,0,0.0,0.0,56,0.00,,,0.09,WSDL version 420,2013-06-19 01:46:00,
2013-06-18 21:48:00,72.3,55.8,28.76,SE,135,0.0,0.0,56,0.00,,,0.09,WSDL version 420,2013-06-19 01:48:00,
2013-06-18 21:52:00,72.2,55.8,28.79,East,90,0.0,0.0,56,0.00,,,0.09,WSDL version 420,2013-06-19 01:52:00,
2013-06-18 21:54:00,72.2,55.9,28.79,East,90,0.0,0.0,57,0.00,,,0.09,WSDL version 420,2013-06-19 01:54:00,
2013-06-18 21:58:00,72.1,56.1,28.79,ESE,113,0.0,0.0,57,0.00,,,0.09,WSDL version 420,2013-06-19 01:58:00,
2013-06-18 22:00:00,72.1,56.0,28.79,SE,124,0.0,0.0,57,0.00,,,0.09,WSDL version 420,2013-06-19 02:00:00,
2013-06-18 22:04:00,72.0,55.9,28.79,East,90,0.0,0.0,57,0.00,,,0.09,WSDL version 420,2013-06-19 02:04:00,
2013-06-18 22:06:00,72.0,56.0,28.79,North,-999,-999.0,-999.0,58,0.00,,,0.09,WSDL version 420,2013-06-19 02:06:00,
2013-06-18 22:08:00,71.9,56.3,28.79,SSE,158,0.0,0.0,59,0.00,,,0.09,WSDL version 420,2013-06-19 02:08:00,
2013-06-18 22:12:00,71.8,56.8,28.79,South,180,0.0,0.0,60,0.00,,,0.09,WSDL version 420,2013-06-19 02:12:00,
2013-06-18 22:14:00,71.8,57.0,28.79,North,-999,-999.0,-999.0,60,0.00,,,0.09,WSDL version 420,2013-06-19 02:14:00,
2013-06-18 22:16:00,71.7,57.1,28.79,North,-999,-999.0,-999.0,60,0.00,,,0.09,WSDL version 420,2013-06-19 02:16:00,
2013-06-18 22:20:00,71.6,57.0,28.79,North,-999,-999.0,-999.0,60,0.00,,,0.09,WSDL version 420,2013-06-19 02:20:00,
2013-06-18 22:22:00,71.5,56.9,28.79,North,-999,-999.0,-999.0,60,0.00,,,0.09,WSDL version 420,2013-06-19 02:22:00,
2013-06-18 22:24:00,71.4,56.8,28.79,North,-999,-999.0,-999.0,60,0.00,,,0.09,WSDL version 420,2013-06-19 02:24:00,
2013-06-18 22:28:00,71.4,57.0,28.79,North,0,0.0,0.0,61,0.00,,,0.09,WSDL version 420,2013-06-19 02:28:00,
2013-06-18 22:30:00,71.3,57.3,28.79,North,-999,-999.0,-999.0,62,0.00,,,0.09,WSDL version 420,2013-06-19 02:30:00,
2013-06-18 22:32:00,71.2,57.4,28.79,SE,135,0.0,0.0,62,0.00,,,0.09,WSDL version 420,2013-06-19 02:32:00,
2013-06-18 22:34:00,71.2,57.3,28.79,ESE,113,0.0,0.0,61,0.00,,,0.09,WSDL version 420,2013-06-19 02:34:00,
2013-06-18 22:36:00,71.1,57.1,28.79,North,-999,-999.0,-999.0,61,0.00,,,0.09,WSDL version 420,2013-06-19 02:36:00,
2013-06-18 22:40:00,71.1,56.9,28.79,SSE,158,0.0,0.0,61,0.00,,,0.09,WSDL version 420,2013-06-19 02:40:00,
2013-06-18 22:44:00,71.0,57.2,28.79,North,-999,-999.0,-999.0,62,0.00,,,0.09,WSDL version 420,2013-06-19 02:44:00,
2013-06-18 22:46:00,71.0,57.3,28.79,North,-999,-999.0,-999.0,62,0.00,,,0.09,WSDL version 420,2013-06-19 02:46:00,
2013-06-18 22:52:00,70.9,57.2,28.79,North,-999,-999.0,-999.0,62,0.00,,,0.09,WSDL version 420,2013-06-19 02:52:00,
2013-06-18 22:56:00,70.8,57.2,28.79,South,180,0.0,0.0,63,0.00,,,0.09,WSDL version 420,2013-06-19 02:56:00,
2013-06-18 22:58:00,70.7,57.3,28.79,North,-999,-999.0,-999.0,63,0.00,,,0.09,WSDL version 420,2013-06-19 02:58:00,
2013-06-18 23:00:00,70.7,57.5,28.79,SSE,158,0.0,0.0,63,0.00,,,0.09,WSDL version 420,2013-06-19 03:00:00,
2013-06-18 23:02:00,70.7,57.3,28.79,North,0,0.0,0.0,62,0.00,,,0.09,WSDL version 420,2013-06-19 03:02:00,
2013-06-18 23:06:00,70.6,56.9,28.82,North,0,0.0,0.0,62,0.00,,,0.09,WSDL version 420,2013-06-19 03:06:00,
2013-06-18 23:10:00,70.5,56.9,28.82,South,173,0.0,0.0,62,0.00,,,0.09,WSDL version 420,2013-06-19 03:10:00,
2013-06-18 23:12:00,70.4,56.7,28.82,North,0,0.0,0.0,61,0.00,,,0.09,WSDL version 420,2013-06-19 03:12:00,
2013-06-18 23:14:00,70.4,56.5,28.82,ENE,68,0.0,1.3,61,0.00,,,0.09,WSDL version 420,2013-06-19 03:14:00,
2013-06-18 23:16:00,70.3,56.4,28.82,NNE,23,0.9,1.3,62,0.00,,,0.09,WSDL version 420,2013-06-19 03:16:00,
2013-06-18 23:20:00,70.3,56.6,28.82,North,-999,-999.0,-999.0,61,0.00,,,0.09,WSDL version 420,2013-06-19 03:20:00,
2013-06-18 23:24:00,70.3,56.3,28.82,SE,146,0.0,0.0,61,0.00,,,0.09,WSDL version 420,2013-06-19 03:24:00,
2013-06-18 23:26:00,70.3,56.3,28.82,South,180,0.3,0.0,61,0.00,,,0.09,WSDL version 420,2013-06-19 03:26:00,
2013-06-18 23:30:00,70.3,56.2,28.82,East,90,0.0,0.0,61,0.00,,,0.09,WSDL version 420,2013-06-19 03:30:00,
2013-06-18 23:32:00,70.2,56.1,28.82,NE,45,0.0,0.0,61,0.00,,,0.09,WSDL version 420,2013-06-19 03:32:00,
2013-06-18 23:34:00,70.2,56.1,28.82,North,-999,-999.0,-999.0,61,0.00,,,0.09,WSDL version 420,2013-06-19 03:34:00,
2013-06-18 23:36:00,70.2,56.1,28.82,NE,45,0.0,0.0,61,0.00,,,0.09,WSDL version 420,2013-06-19 03:36:00,
2013-06-18 23:40:00,70.2,56.3,28.82,SSE,158,0.0,0.0,62,0.00,,,0.09,WSDL version 420,2013-06-19 03:40:00,
2013-06-18 23:42:00,70.2,56.5,28.82,North,-999,-999.0,-999.0,62,0.00,,,0.09,WSDL version 420,2013-06-19 03:42:00,
2013-06-18 23:46:00,70.0,56.1,28.82,North,0,0.0,0.0,61,0.00,,,0.09,WSDL version 420,2013-06-19 03:46:00,
2013-06-18 23:48:00,70.0,56.2,28.82,NNE,23,0.0,0.0,62,0.00,,,0.09,WSDL version 420,2013-06-19 03:48:00,
2013-06-18 23:50:00,70.0,56.2,28.82,NNE,23,0.0,0.0,62,0.00,,,0.09,WSDL version 420,2013-06-19 03:50:00,
2013-06-18 23:54:00,70.0,56.2,28.82,SSW,203,0.0,0.0,61,0.00,,,0.09,WSDL version 420,2013-06-19 03:54:00,
2013-06-18 23:56:00,70.0,56.2,28.82,SE,135,0.0,0.0,62,0.00,,,0.09,WSDL version 420,2013-06-19 03:56:00,
2013-06-18 23:58:00,70.0,56.2,28.82,SE,135,0.0,0.0,62,0.00,,,0.09,WSDL version 420,2013-06-19 03:58:00,